Carver, Minnesota
Current Conditions -  °F | °C
As of 1:53 PM on Friday 31 Oct 2014 (Local Time) from KFCM Reporting Station
Clear Clear  
Wind Chill: 34°   Ceiling: Unl
Heat Index: 39°   Visibility: 10mi
Dew Point: 17°   Wind: 7mph
Humidity: 41%   Direction: NA
Pressure: 30.51"   Gusts: NA
Location:  44.76°N, 93.63°W
Report Text: KFCM 311853Z VRB06KT 10SM CLR 04/M08 A3051 RMK AO2 SLP344 T00391083
Loading
Personal Weather Stations






























Interactive Weather Map
Tropical Storm Tracking
New forecast layout! Learn more

10-Day Weather Forecast

Advertisements
Track Severe Weather on mobile